createdAt,value
2019-02-22T00:01:00.552Z,9.16
2019-02-22T00:03:31.074Z,9.08
2019-02-22T00:06:02.830Z,9.03
2019-02-22T00:08:33.673Z,9.08
2019-02-22T00:11:04.116Z,8.99
2019-02-22T00:13:34.555Z,9.05
2019-02-22T00:16:05.027Z,9.06
2019-02-22T00:18:35.810Z,8.95
2019-02-22T00:21:06.275Z,8.96
2019-02-22T00:23:37.223Z,9.06
2019-02-22T00:26:08.005Z,9.07
2019-02-22T00:28:38.482Z,9.08
2019-02-22T00:31:08.963Z,9.08
2019-02-22T00:33:39.727Z,9.07
2019-02-22T00:36:10.292Z,9.03
2019-02-22T00:38:40.723Z,9.05
2019-02-22T00:41:11.492Z,9.04
2019-02-22T00:43:42.036Z,9.11
2019-02-22T00:46:12.482Z,9.12
2019-02-22T00:48:42.924Z,9.12
2019-02-22T00:51:13.395Z,9.15
2019-02-22T00:53:43.844Z,9.17
2019-02-22T00:56:14.345Z,9.13
2019-02-22T00:58:44.787Z,9.14
2019-02-22T01:01:15.238Z,9.13
2019-02-22T01:03:46.133Z,9.20
2019-02-22T01:06:16.578Z,9.13
2019-02-22T01:08:47.398Z,9.13
2019-02-22T01:11:17.841Z,9.12
2019-02-22T01:13:48.289Z,9.15
2019-02-22T01:16:18.771Z,9.10
2019-02-22T01:18:49.214Z,9.06
2019-02-22T01:21:20.956Z,9.05
2019-02-22T01:23:51.413Z,8.97
2019-02-22T01:26:21.854Z,8.95
2019-02-22T01:28:52.370Z,9.01
2019-02-22T01:31:22.814Z,8.96
2019-02-22T01:33:54.293Z,9.03
2019-02-22T01:36:25.259Z,8.96
2019-02-22T01:38:55.779Z,9.00
2019-02-22T01:41:26.303Z,8.99
2019-02-22T01:43:56.742Z,9.03
2019-02-22T01:46:27.226Z,9.00
2019-02-22T01:48:57.666Z,8.96
2019-02-22T01:51:28.111Z,8.98
2019-02-22T01:53:58.614Z,9.01
2019-02-22T01:56:29.059Z,8.96
2019-02-22T01:58:59.500Z,9.03
2019-02-22T02:01:29.970Z,9.03
2019-02-22T02:04:00.439Z,9.04
2019-02-22T02:06:31.276Z,9.04
2019-02-22T02:09:01.749Z,9.02
2019-02-22T02:11:32.191Z,9.02
2019-02-22T02:14:03.234Z,8.96
2019-02-22T02:16:33.684Z,8.99
2019-02-22T02:19:04.174Z,9.02
2019-02-22T02:21:34.615Z,9.04
2019-02-22T02:24:05.184Z,9.03
2019-02-22T02:26:35.660Z,8.98
2019-02-22T02:29:06.435Z,9.01
2019-02-22T02:31:36.959Z,8.98
2019-02-22T02:34:07.747Z,8.91
2019-02-22T02:36:38.189Z,8.94
2019-02-22T02:39:08.678Z,8.86
2019-02-22T02:41:39.124Z,8.83
2019-02-22T02:44:09.563Z,8.78
2019-02-22T02:46:40.055Z,8.82
2019-02-22T02:49:10.500Z,8.87
2019-02-22T02:51:41.564Z,8.91
2019-02-22T02:54:12.402Z,8.89
2019-02-22T02:56:42.857Z,8.91
2019-02-22T02:59:14.646Z,8.91
2019-02-22T03:01:45.103Z,8.92
2019-02-22T03:04:15.963Z,8.92
2019-02-22T03:06:55.010Z,8.95
2019-02-22T03:09:25.470Z,8.98
2019-02-22T03:11:55.938Z,8.95
2019-02-22T03:14:26.799Z,8.93
2019-02-22T03:16:57.239Z,9.02
2019-02-22T03:19:28.451Z,8.92
2019-02-22T03:21:58.920Z,8.86
2019-02-22T03:24:30.319Z,8.80
2019-02-22T03:27:01.381Z,8.80
2019-02-22T03:29:31.816Z,8.87
2019-02-22T03:32:02.366Z,8.86
2019-02-22T03:34:32.835Z,8.85
2019-02-22T03:37:03.329Z,8.86
2019-02-22T03:39:34.165Z,8.88
2019-02-22T03:42:04.607Z,8.85
2019-02-22T03:44:35.077Z,8.88
2019-02-22T03:47:05.524Z,8.89
2019-02-22T03:49:36.004Z,8.87
2019-02-22T03:52:24.454Z,8.84
2019-02-22T03:54:54.927Z,8.83
2019-02-22T03:57:25.386Z,8.87
2019-02-22T03:59:56.217Z,8.87
2019-02-22T04:02:26.771Z,8.85
2019-02-22T04:04:57.223Z,8.77
2019-02-22T04:07:27.709Z,8.87
2019-02-22T04:09:58.166Z,8.89
2019-02-22T04:12:28.621Z,8.91
2019-02-22T04:14:59.102Z,8.92
2019-02-22T04:17:29.553Z,8.88
2019-02-22T04:20:00.002Z,8.89
2019-02-22T04:22:30.491Z,8.92
2019-02-22T04:25:00.937Z,8.96
2019-02-22T04:27:31.388Z,8.93
2019-02-22T04:30:01.905Z,8.89
2019-02-22T04:32:32.378Z,8.87
2019-02-22T04:35:03.204Z,8.88
2019-02-22T04:37:33.697Z,8.92
2019-02-22T04:40:04.158Z,8.96
2019-02-22T04:42:34.647Z,8.89
2019-02-22T04:45:05.811Z,8.91
2019-02-22T04:47:36.624Z,8.83
2019-02-22T04:50:07.828Z,8.80
2019-02-22T04:52:38.282Z,8.87
2019-02-22T04:55:08.773Z,8.80
2019-02-22T04:57:39.226Z,8.76
2019-02-22T05:00:09.749Z,8.77
2019-02-22T05:02:40.294Z,8.81
2019-02-22T05:05:10.749Z,8.79
2019-02-22T05:07:42.170Z,8.83
2019-02-22T05:10:12.975Z,8.88
2019-02-22T05:12:43.548Z,8.86
2019-02-22T05:15:13.995Z,8.90
2019-02-22T05:17:44.451Z,8.81
2019-02-22T05:20:14.920Z,8.80
2019-02-22T05:22:45.361Z,8.79
2019-02-22T05:25:15.860Z,8.87
2019-02-22T05:27:46.306Z,8.75
2019-02-22T05:30:16.754Z,8.78
2019-02-22T05:32:47.247Z,8.79
2019-02-22T05:35:18.494Z,8.74
2019-02-22T05:37:48.941Z,8.79
2019-02-22T05:40:19.442Z,8.87
2019-02-22T05:42:49.905Z,8.86
2019-02-22T05:45:20.346Z,8.81
2019-02-22T05:47:50.846Z,8.79
2019-02-22T05:50:21.290Z,8.85
2019-02-22T05:52:51.739Z,8.81
2019-02-22T05:55:22.213Z,8.75
2019-02-22T05:57:52.652Z,8.81
2019-02-22T06:00:23.611Z,8.73
2019-02-22T06:02:54.061Z,8.77
2019-02-22T06:05:24.542Z,8.74
2019-02-22T06:07:55.613Z,8.70
2019-02-22T06:10:26.074Z,8.64
2019-02-22T06:12:56.823Z,8.66
2019-02-22T06:15:27.294Z,8.63
2019-02-22T06:17:57.742Z,8.68
2019-02-22T06:20:28.231Z,8.68
2019-02-22T06:22:58.670Z,8.66
2019-02-22T06:25:29.126Z,8.69
2019-02-22T06:27:59.601Z,8.59
2019-02-22T06:30:30.047Z,8.54
2019-02-22T06:33:00.731Z,8.62
2019-02-22T06:35:31.190Z,8.63
2019-02-22T06:38:01.654Z,8.65
2019-02-22T06:40:32.151Z,8.57
2019-02-22T06:43:02.962Z,8.56
2019-02-22T06:45:33.412Z,8.53
2019-02-22T06:48:03.905Z,8.58
2019-02-22T06:50:34.347Z,8.58
2019-02-22T06:53:04.839Z,8.61
2019-02-22T06:55:35.313Z,8.60
2019-02-22T06:58:06.203Z,8.57
2019-02-22T07:00:36.731Z,8.52
2019-02-22T07:03:07.184Z,8.60
2019-02-22T07:05:37.628Z,8.60
2019-02-22T07:08:09.085Z,8.66
2019-02-22T07:10:57.036Z,8.68
2019-02-22T07:13:27.531Z,8.61
2019-02-22T07:15:59.292Z,8.58
2019-02-22T07:18:32.138Z,8.58
2019-02-22T07:21:03.769Z,8.55
2019-02-22T07:23:34.215Z,8.50
2019-02-22T07:26:04.690Z,8.48
2019-02-22T07:28:35.131Z,8.53
2019-02-22T07:31:05.648Z,8.60
2019-02-22T07:33:36.146Z,8.54
2019-02-22T07:36:06.603Z,8.61
2019-02-22T07:38:37.086Z,8.69
2019-02-22T07:41:07.539Z,8.65
2019-02-22T07:43:38.019Z,8.70
2019-02-22T07:46:08.471Z,8.73
2019-02-22T07:48:38.918Z,8.78
2019-02-22T07:51:09.390Z,8.78
2019-02-22T07:53:39.830Z,8.75
2019-02-22T07:56:10.319Z,8.68
2019-02-22T07:58:41.548Z,8.69
2019-02-22T08:01:11.996Z,8.69
2019-02-22T08:03:43.799Z,8.66
2019-02-22T08:06:14.246Z,8.62
2019-02-22T08:08:44.742Z,8.65
2019-02-22T08:11:15.192Z,8.71
2019-02-22T08:13:45.656Z,8.72
2019-02-22T08:16:16.128Z,8.63
2019-02-22T08:18:46.566Z,8.64
2019-02-22T08:21:17.039Z,8.75
2019-02-22T08:23:47.526Z,8.79
2019-02-22T08:26:18.026Z,8.74
2019-02-22T08:28:48.834Z,8.64
2019-02-22T08:31:19.277Z,8.69
2019-02-22T08:33:49.751Z,8.66
2019-02-22T08:36:20.219Z,8.73
2019-02-22T08:38:50.697Z,8.69
2019-02-22T08:41:21.153Z,8.70
2019-02-22T08:43:51.632Z,8.63
2019-02-22T08:46:22.110Z,8.60
2019-02-22T08:48:52.551Z,8.53
2019-02-22T08:51:23.435Z,8.51
2019-02-22T08:53:54.251Z,8.53
2019-02-22T08:56:24.740Z,8.54
2019-02-22T08:58:55.186Z,8.56
2019-02-22T09:01:25.629Z,8.54
2019-02-22T09:03:56.110Z,8.55
2019-02-22T09:06:26.638Z,8.51
2019-02-22T09:08:57.143Z,8.49
2019-02-22T09:11:27.585Z,8.49
2019-02-22T09:13:58.037Z,8.56
2019-02-22T09:16:28.509Z,8.52
2019-02-22T09:18:58.942Z,8.48
2019-02-22T09:21:29.434Z,8.53
2019-02-22T09:24:00.246Z,8.54
2019-02-22T09:26:30.690Z,8.46
2019-02-22T09:29:01.193Z,8.42
2019-02-22T09:31:33.142Z,8.32
2019-02-22T09:34:03.613Z,8.30
2019-02-22T09:36:34.135Z,8.36
2019-02-22T09:39:06.922Z,8.39
2019-02-22T09:41:37.468Z,8.39
2019-02-22T09:44:07.923Z,8.41
2019-02-22T09:46:38.367Z,8.43
2019-02-22T09:49:09.012Z,8.42
2019-02-22T09:51:41.222Z,8.43
2019-02-22T09:54:11.602Z,8.48
2019-02-22T09:56:42.074Z,8.42
2019-02-22T09:59:12.891Z,8.47
2019-02-22T10:01:43.359Z,8.54
2019-02-22T10:04:13.807Z,8.62
2019-02-22T10:06:44.281Z,8.61
2019-02-22T10:09:14.733Z,8.71
2019-02-22T10:11:45.270Z,8.80
2019-02-22T10:14:15.775Z,8.87
2019-02-22T10:16:46.492Z,8.76
2019-02-22T10:19:16.998Z,8.82
2019-02-22T10:21:48.134Z,8.85
2019-02-22T10:24:18.561Z,8.82
2019-02-22T10:26:49.043Z,8.75
2019-02-22T10:29:19.921Z,8.67
2019-02-22T10:31:50.754Z,8.55
2019-02-22T10:34:22.132Z,8.49
2019-02-22T10:36:52.592Z,8.47
2019-02-22T10:39:23.086Z,8.24
2019-02-22T10:41:53.580Z,7.98
2019-02-22T10:44:24.030Z,7.79
2019-02-22T10:46:54.489Z,7.61
2019-02-22T10:49:25.376Z,7.63
2019-02-22T10:51:55.775Z,7.59
2019-02-22T10:54:26.278Z,7.57
2019-02-22T10:56:56.721Z,7.51
2019-02-22T10:59:27.183Z,7.53
2019-02-22T11:01:57.664Z,7.54
2019-02-22T11:04:28.126Z,7.59
2019-02-22T11:06:58.635Z,7.51
2019-02-22T11:09:29.087Z,7.38
2019-02-22T11:11:59.566Z,7.28
2019-02-22T11:14:30.426Z,7.28
2019-02-22T11:17:00.865Z,7.18
2019-02-22T11:19:31.531Z,7.21
2019-02-22T11:22:02.397Z,6.96
2019-02-22T11:24:32.815Z,7.02
2019-02-22T11:27:03.291Z,6.98
2019-02-22T11:29:34.151Z,6.97
2019-02-22T11:32:04.626Z,6.93
2019-02-22T11:34:35.070Z,6.85
2019-02-22T11:37:05.918Z,6.73
2019-02-22T11:39:36.451Z,6.59
2019-02-22T11:42:07.630Z,6.52
2019-02-22T11:44:40.430Z,6.47
2019-02-22T11:47:10.261Z,6.39
2019-02-22T11:49:40.711Z,6.32
2019-02-22T11:52:11.184Z,6.25
2019-02-22T11:54:41.680Z,6.18
2019-02-22T11:57:12.395Z,6.19
2019-02-22T11:59:42.840Z,6.23
2019-02-22T12:02:14.116Z,6.10
2019-02-22T12:04:44.562Z,6.07
2019-02-22T12:07:15.052Z,6.12
2019-02-22T12:09:45.767Z,6.16
2019-02-22T12:12:16.215Z,6.13
2019-02-22T12:14:51.499Z,6.12
2019-02-22T12:17:19.231Z,6.24
2019-02-22T12:19:50.393Z,6.37
2019-02-22T12:22:20.835Z,6.33
2019-02-22T12:24:51.275Z,6.23
2019-02-22T12:27:21.747Z,6.14
2019-02-22T12:29:52.187Z,6.04
2019-02-22T12:32:22.666Z,6.07
2019-02-22T12:34:53.129Z,6.19
2019-02-22T12:37:23.904Z,6.27
2019-02-22T12:39:54.744Z,6.29
2019-02-22T12:42:25.180Z,6.25
2019-02-22T12:45:02.814Z,6.18
2019-02-22T12:47:27.997Z,6.11
2019-02-22T12:49:58.526Z,6.08
2019-02-22T12:52:29.004Z,6.13
2019-02-22T12:54:59.503Z,6.17
2019-02-22T12:57:29.977Z,6.11
2019-02-22T13:00:00.424Z,6.18
2019-02-22T13:02:31.267Z,6.19
2019-02-22T13:05:01.723Z,6.15
2019-02-22T13:07:33.514Z,6.04
2019-02-22T13:10:03.985Z,6.04
2019-02-22T13:12:35.412Z,6.01
2019-02-22T13:15:13.565Z,6.08
2019-02-22T13:17:38.486Z,6.19
2019-02-22T13:20:09.398Z,6.06
2019-02-22T13:22:39.871Z,6.14
2019-02-22T13:25:10.474Z,6.12
2019-02-22T13:27:41.927Z,6.12
2019-02-22T13:30:12.864Z,6.17
2019-02-22T13:32:43.450Z,6.16
2019-02-22T13:35:13.990Z,6.20
2019-02-22T13:37:44.440Z,6.18
2019-02-22T13:40:15.222Z,6.16
2019-02-22T13:42:45.779Z,6.10
2019-02-22T13:45:25.973Z,6.10
2019-02-22T13:47:48.522Z,6.02
2019-02-22T13:50:19.080Z,6.05
2019-02-22T13:52:49.598Z,6.02
2019-02-22T13:55:20.438Z,6.13
2019-02-22T13:57:51.355Z,6.15
2019-02-22T14:00:21.834Z,6.21
2019-02-22T14:02:52.269Z,6.16
2019-02-22T14:05:22.990Z,6.02
2019-02-22T14:07:54.055Z,5.84
2019-02-22T14:10:25.430Z,5.81
2019-02-22T14:12:55.921Z,5.78
2019-02-22T14:15:37.037Z,5.73
2019-02-22T14:17:58.649Z,5.71
2019-02-22T14:20:29.106Z,5.75
2019-02-22T14:23:00.540Z,5.71
2019-02-22T14:25:31.021Z,5.67
2019-02-22T14:28:01.571Z,5.67
2019-02-22T14:30:32.056Z,5.69
2019-02-22T14:33:03.541Z,5.70
2019-02-22T14:35:34.081Z,5.69
2019-02-22T14:38:04.738Z,5.54
2019-02-22T14:40:35.158Z,5.50
2019-02-22T14:43:16.057Z,5.39
2019-02-22T14:45:48.770Z,5.33
2019-02-22T14:48:10.793Z,5.24
2019-02-22T14:50:41.263Z,5.27
2019-02-22T14:53:19.542Z,5.22
2019-02-22T14:55:44.059Z,5.21
2019-02-22T14:58:14.855Z,5.20
2019-02-22T15:00:47.148Z,5.27
2019-02-22T15:03:18.704Z,5.14
2019-02-22T15:05:49.212Z,5.05
2019-02-22T15:08:19.679Z,5.00
2019-02-22T15:10:50.129Z,4.88
2019-02-22T15:13:21.015Z,4.85
2019-02-22T15:16:13.476Z,4.88
2019-02-22T15:18:43.973Z,4.94
2019-02-22T15:21:14.446Z,4.99
2019-02-22T15:23:45.168Z,4.97
2019-02-22T15:26:16.022Z,4.93
2019-02-22T15:28:46.477Z,4.89
2019-02-22T15:31:17.082Z,4.87
2019-02-22T15:33:47.686Z,4.83
2019-02-22T15:36:18.123Z,4.72
2019-02-22T15:38:49.015Z,4.65
2019-02-22T15:41:19.463Z,4.66
2019-02-22T15:43:49.978Z,4.60
2019-02-22T15:46:20.423Z,4.60
2019-02-22T15:48:50.886Z,4.49
2019-02-22T15:51:21.331Z,4.55
2019-02-22T15:53:51.783Z,4.49
2019-02-22T15:56:22.277Z,4.50
2019-02-22T15:58:52.751Z,4.44
2019-02-22T16:01:25.498Z,4.31
2019-02-22T16:04:01.550Z,4.35
2019-02-22T16:06:32.462Z,4.39
2019-02-22T16:09:03.975Z,4.41
2019-02-22T16:11:34.414Z,4.41
2019-02-22T16:14:07.086Z,4.36
2019-02-22T16:16:37.119Z,4.25
2019-02-22T16:19:08.107Z,4.23
2019-02-22T16:21:38.557Z,4.24
2019-02-22T16:24:09.112Z,4.14
2019-02-22T16:26:39.611Z,4.09
2019-02-22T16:29:10.057Z,4.18
2019-02-22T16:31:40.538Z,4.23
2019-02-22T16:34:11.015Z,4.25
2019-02-22T16:36:41.612Z,4.36
2019-02-22T16:39:12.103Z,4.33
2019-02-22T16:41:42.964Z,4.32
2019-02-22T16:44:13.488Z,4.29
2019-02-22T16:46:44.306Z,4.26
2019-02-22T16:49:14.804Z,4.15
2019-02-22T16:51:48.038Z,4.19
2019-02-22T16:54:18.781Z,4.17
2019-02-22T16:56:49.646Z,4.14
2019-02-22T16:59:20.084Z,4.03
2019-02-22T17:01:50.577Z,4.04
2019-02-22T17:04:21.051Z,4.03
2019-02-22T17:06:51.531Z,4.00
2019-02-22T17:09:22.027Z,3.94
2019-02-22T17:11:52.904Z,3.95
2019-02-22T17:14:23.705Z,3.90
2019-02-22T17:16:54.478Z,3.91
2019-02-22T17:19:24.941Z,3.90
2019-02-22T17:21:55.448Z,3.84
2019-02-22T17:24:26.019Z,3.90
2019-02-22T17:26:56.858Z,3.86
2019-02-22T17:29:27.348Z,3.90
2019-02-22T17:31:57.789Z,3.89
2019-02-22T17:34:30.739Z,3.92
2019-02-22T17:37:02.171Z,3.92
2019-02-22T17:39:32.615Z,3.86
2019-02-22T17:42:03.153Z,3.81
2019-02-22T17:44:33.618Z,3.76
2019-02-22T17:47:06.520Z,3.71
2019-02-22T17:49:36.688Z,3.72
2019-02-22T17:52:07.142Z,3.69
2019-02-22T17:54:38.666Z,3.74
2019-02-22T17:57:09.143Z,3.78
2019-02-22T17:59:39.649Z,3.80
2019-02-22T18:02:10.165Z,3.81
2019-02-22T18:04:40.636Z,3.76
2019-02-22T18:07:11.130Z,3.78
2019-02-22T18:09:41.689Z,3.78
2019-02-22T18:12:12.195Z,3.73
2019-02-22T18:14:42.693Z,3.74
2019-02-22T18:17:13.199Z,3.60
2019-02-22T18:19:43.626Z,3.54
2019-02-22T18:22:14.076Z,3.54
2019-02-22T18:24:44.548Z,3.58
2019-02-22T18:27:15.009Z,3.45
2019-02-22T18:29:45.868Z,3.44
2019-02-22T18:32:16.688Z,3.39
2019-02-22T18:34:48.054Z,3.42
2019-02-22T18:37:18.506Z,3.44
2019-02-22T18:39:49.110Z,3.48
2019-02-22T18:42:20.271Z,3.55
2019-02-22T18:44:50.711Z,3.55
2019-02-22T18:47:21.166Z,3.55
2019-02-22T18:49:51.660Z,3.49
2019-02-22T18:52:23.137Z,3.43
2019-02-22T18:54:53.599Z,3.25
2019-02-22T18:57:25.316Z,3.23
2019-02-22T18:59:55.921Z,3.14
2019-02-22T19:02:26.790Z,3.20
2019-02-22T19:04:57.668Z,3.13
2019-02-22T19:07:28.855Z,3.06
2019-02-22T19:09:59.329Z,3.10
2019-02-22T19:12:29.792Z,3.09
2019-02-22T19:15:00.312Z,3.09
2019-02-22T19:17:30.797Z,3.04
2019-02-22T19:20:01.303Z,3.00
2019-02-22T19:22:33.068Z,3.06
2019-02-22T19:25:03.820Z,3.08
2019-02-22T19:27:34.344Z,3.08
2019-02-22T19:30:05.423Z,3.05
2019-02-22T19:32:35.902Z,3.06
2019-02-22T19:35:06.494Z,3.06
2019-02-22T19:37:38.235Z,3.02
2019-02-22T19:40:13.868Z,3.00
2019-02-22T19:42:44.397Z,3.02
2019-02-22T19:45:15.571Z,2.99
2019-02-22T19:47:46.182Z,3.02
2019-02-22T19:50:16.978Z,2.97
2019-02-22T19:52:47.448Z,2.97
2019-02-22T19:55:18.916Z,2.98
2019-02-22T19:57:49.544Z,2.90
2019-02-22T20:00:20.501Z,2.96
2019-02-22T20:02:51.015Z,2.87
2019-02-22T20:05:21.635Z,2.86
2019-02-22T20:07:53.108Z,2.80
2019-02-22T20:10:23.665Z,2.79
2019-02-22T20:12:54.167Z,2.79
2019-02-22T20:15:25.616Z,2.76
2019-02-22T20:17:57.753Z,2.83
2019-02-22T20:20:38.359Z,2.80
2019-02-22T20:23:09.279Z,2.76
2019-02-22T20:25:40.068Z,2.71
2019-02-22T20:28:10.586Z,2.68
2019-02-22T20:30:41.060Z,2.70
2019-02-22T20:33:11.514Z,2.61
2019-02-22T20:35:42.523Z,2.65
2019-02-22T20:38:12.979Z,2.57
2019-02-22T20:40:43.428Z,2.55
2019-02-22T20:43:15.213Z,2.50
2019-02-22T20:45:45.684Z,2.47
2019-02-22T20:48:18.436Z,2.44
2019-02-22T20:50:50.117Z,2.30
2019-02-22T20:53:21.247Z,2.35
2019-02-22T20:55:51.695Z,2.34
2019-02-22T20:58:22.233Z,2.27
2019-02-22T21:00:52.774Z,2.24
2019-02-22T21:03:24.500Z,2.30
2019-02-22T21:05:55.486Z,2.30
2019-02-22T21:08:25.966Z,2.29
2019-02-22T21:10:56.479Z,2.26
2019-02-22T21:13:28.255Z,2.28
2019-02-22T21:15:58.935Z,2.18
2019-02-22T21:18:29.378Z,2.26
2019-02-22T21:21:02.114Z,2.18
2019-02-22T21:23:32.942Z,2.22
2019-02-22T21:26:03.406Z,2.24
2019-02-22T21:28:34.398Z,2.24
2019-02-22T21:31:05.329Z,2.22
2019-02-22T21:33:36.104Z,2.14
2019-02-22T21:36:06.628Z,2.12
2019-02-22T21:38:37.510Z,2.08
2019-02-22T21:41:08.049Z,2.00
2019-02-22T21:43:38.565Z,2.00
2019-02-22T21:46:09.762Z,1.93
2019-02-22T21:48:40.722Z,1.89
2019-02-22T21:51:11.571Z,1.89
2019-02-22T21:53:42.040Z,1.91
2019-02-22T21:56:17.344Z,1.93
2019-02-22T21:58:48.935Z,1.88
2019-02-22T22:01:19.471Z,1.90
2019-02-22T22:03:51.453Z,1.95
2019-02-22T22:06:21.970Z,1.97
2019-02-22T22:08:52.413Z,1.98
2019-02-22T22:11:22.926Z,2.02
2019-02-22T22:13:53.381Z,2.01
2019-02-22T22:16:23.822Z,1.96
2019-02-22T22:18:54.415Z,2.03
2019-02-22T22:21:24.860Z,2.04
2019-02-22T22:23:55.332Z,2.10
2019-02-22T22:26:25.908Z,2.09
2019-02-22T22:28:56.362Z,2.08
2019-02-22T22:31:26.812Z,2.06
2019-02-22T22:33:57.358Z,1.99
2019-02-22T22:36:27.799Z,1.95
2019-02-22T22:38:58.663Z,2.03
2019-02-22T22:41:29.176Z,1.98
2019-02-22T22:43:59.618Z,1.98
2019-02-22T22:46:36.838Z,1.99
2019-02-22T22:49:02.255Z,2.08
2019-02-22T22:51:32.698Z,2.08
2019-02-22T22:54:03.150Z,2.17
2019-02-22T22:56:33.638Z,2.19
2019-02-22T22:59:04.078Z,2.20
2019-02-22T23:01:36.221Z,2.19
2019-02-22T23:04:06.711Z,2.23
2019-02-22T23:06:37.153Z,2.26
2019-02-22T23:09:16.344Z,2.30
2019-02-22T23:11:46.790Z,2.36
2019-02-22T23:14:17.236Z,2.38
2019-02-22T23:16:47.745Z,2.37
2019-02-22T23:19:18.347Z,2.37
2019-02-22T23:21:48.787Z,2.41
2019-02-22T23:24:19.284Z,2.40
2019-02-22T23:26:49.727Z,2.32
2019-02-22T23:29:20.166Z,2.32
2019-02-22T23:31:50.657Z,2.31
2019-02-22T23:34:21.099Z,2.33
2019-02-22T23:36:51.623Z,2.35
2019-02-22T23:39:22.285Z,2.37
2019-02-22T23:41:53.222Z,2.42
2019-02-22T23:44:23.936Z,2.39
2019-02-22T23:46:54.420Z,2.45
2019-02-22T23:49:24.862Z,2.45
2019-02-22T23:51:55.301Z,2.44
2019-02-22T23:54:25.788Z,2.38
2019-02-22T23:56:56.287Z,2.42
2019-02-22T23:59:26.787Z,2.45
